Time;durP1;ratioP1;P1;durP2;ratioP2;P2;SDS_P1;SDS_P2;PMS_P1;PMS_P2;Temp;Humidity;BMP_temperature;BMP_pressure;BME280_temperature;BME280_humidity;BME280_pressure;Samples;Min_cycle;Max_cycle;Signal;HPM_P1;HPM_P2
2022/09/11 00:02:11;;;;;;;8.30;6.70;;;15.00;99.90;;;;;;5125664;28;20204;-72
2022/09/11 00:04:38;;;;;;;7.90;6.80;;;14.90;99.90;;;;;;5123112;28;20288;-72
2022/09/11 00:07:04;;;;;;;10.20;6.18;;;14.90;99.90;;;;;;5133363;28;20199;-72
2022/09/11 00:09:31;;;;;;;9.05;7.15;;;14.90;99.90;;;;;;5132084;28;20643;-72
2022/09/11 00:11:59;;;;;;;7.60;6.47;;;14.90;99.90;;;;;;5112182;28;20193;-72
2022/09/11 00:14:27;;;;;;;7.72;6.90;;;14.90;99.90;;;;;;5118163;28;20193;-72
2022/09/11 00:16:54;;;;;;;7.55;5.80;;;14.80;99.90;;;;;;5127048;27;20303;-72
2022/09/11 00:19:21;;;;;;;7.93;5.78;;;14.80;99.90;;;;;;5096668;28;20217;-72
2022/09/11 00:21:48;;;;;;;10.20;6.23;;;14.70;99.90;;;;;;5114808;28;20200;-72
2022/09/11 00:24:15;;;;;;;8.30;6.13;;;14.70;99.90;;;;;;5132223;28;20211;-73
2022/09/11 00:26:42;;;;;;;8.10;6.03;;;14.60;99.90;;;;;;5124020;28;20565;-72
2022/09/11 00:29:10;;;;;;;6.60;5.87;;;14.40;99.90;;;;;;5132590;28;20184;-72
2022/09/11 00:31:38;;;;;;;8.82;6.20;;;14.60;99.90;;;;;;5121708;28;20193;-72
2022/09/11 00:34:05;;;;;;;6.25;5.65;;;14.60;99.90;;;;;;5112509;28;20208;-72
2022/09/11 00:36:34;;;;;;;7.45;6.20;;;14.60;99.90;;;;;;5114569;28;20608;-72
2022/09/11 00:39:01;;;;;;;7.00;6.28;;;14.50;99.90;;;;;;5129886;27;20264;-72
2022/09/11 00:41:31;;;;;;;7.00;6.27;;;14.40;99.90;;;;;;5119679;28;20227;-72
2022/09/11 00:44:01;;;;;;;7.40;6.07;;;14.40;99.90;;;;;;5122821;28;20204;-72
2022/09/11 00:46:37;;;;;;;8.63;6.93;;;14.40;99.90;;;;;;5123698;28;20185;-72
2022/09/11 00:49:15;;;;;;;6.93;6.15;;;14.50;99.90;;;;;;5111099;28;20655;-73
2022/09/11 00:51:45;;;;;;;7.65;6.47;;;14.50;99.90;;;;;;5104866;28;20208;-72
2022/09/11 00:54:14;;;;;;;7.70;6.27;;;14.40;99.90;;;;;;5116989;28;20207;-72
2022/09/11 00:56:43;;;;;;;6.70;5.72;;;14.40;99.90;;;;;;5109132;27;20215;-72
2022/09/11 00:59:10;;;;;;;8.93;6.00;;;14.40;99.90;;;;;;5129167;27;20253;-72
2022/09/11 01:01:38;;;;;;;8.57;6.83;;;14.50;99.90;;;;;;5120364;27;20205;-72
2022/09/11 01:04:07;;;;;;;9.75;6.85;;;14.60;99.90;;;;;;5110915;27;20673;-72
2022/09/11 01:06:34;;;;;;;8.77;7.07;;;14.50;99.90;;;;;;5120470;27;20204;-72
2022/09/11 01:09:01;;;;;;;9.27;7.37;;;14.50;99.90;;;;;;5121198;27;20193;-72
2022/09/11 01:11:44;;;;;;;8.80;7.05;;;14.50;99.90;;;;;;5117842;27;20204;-72
2022/09/11 01:14:31;;;;;;;9.50;7.70;;;14.60;99.90;;;;;;5135432;27;20204;-72
2022/09/11 01:17:14;;;;;;;11.77;7.70;;;14.60;99.90;;;;;;5110788;27;20673;-72
2022/09/11 01:19:59;;;;;;;8.60;6.60;;;14.70;99.90;;;;;;5135887;27;20204;-73
2022/09/11 01:22:45;;;;;;;9.10;7.40;;;14.70;99.90;;;;;;5127897;27;20197;-72
2022/09/11 01:25:23;;;;;;;11.60;7.37;;;14.70;99.90;;;;;;5120464;27;20193;-72
2022/09/11 01:27:53;;;;;;;10.47;7.20;;;14.60;99.90;;;;;;5115617;27;20197;-72
2022/09/11 01:30:22;;;;;;;11.10;7.80;;;14.60;99.90;;;;;;5114725;28;20205;-72
2022/09/11 01:33:10;;;;;;;10.73;7.60;;;14.60;99.90;;;;;;5109903;27;20648;-72
2022/09/11 01:35:47;;;;;;;10.23;7.57;;;14.60;99.90;;;;;;5095033;28;20206;-72
2022/09/11 01:38:18;;;;;;;9.97;7.57;;;14.50;99.90;;;;;;5115896;27;20209;-72
2022/09/11 01:40:52;;;;;;;10.67;8.07;;;14.50;99.90;;;;;;5096086;28;20652;-72
2022/09/11 01:43:25;;;;;;;11.97;8.23;;;14.50;99.90;;;;;;5108902;27;20200;-72
2022/09/11 01:45:54;;;;;;;10.80;8.37;;;14.50;99.90;;;;;;5081433;28;20200;-72
2022/09/11 01:48:25;;;;;;;9.77;8.10;;;14.50;99.90;;;;;;5115547;27;20197;-72
2022/09/11 01:50:55;;;;;;;12.20;8.07;;;14.60;99.90;;;;;;5104039;27;20219;-73
2022/09/11 01:53:26;;;;;;;11.70;8.52;;;14.60;99.90;;;;;;5117382;27;20193;-72
2022/09/11 01:56:01;;;;;;;13.23;8.67;;;14.50;99.90;;;;;;5115394;27;20636;-72
2022/09/11 01:58:31;;;;;;;11.67;8.87;;;14.50;99.90;;;;;;5114250;28;20204;-72
2022/09/11 02:01:03;;;;;;;15.80;9.60;;;14.60;99.90;;;;;;5128724;27;20219;-72
2022/09/11 02:03:35;;;;;;;13.15;10.15;;;14.60;99.90;;;;;;5125686;27;20202;-72
2022/09/11 02:06:06;;;;;;;14.53;10.33;;;14.60;99.90;;;;;;5123025;27;20207;-72
2022/09/11 02:08:40;;;;;;;15.02;11.02;;;14.60;99.90;;;;;;5134494;27;20200;-72
2022/09/11 02:11:10;;;;;;;16.20;12.10;;;14.70;99.90;;;;;;5109193;27;20262;-73
2022/09/11 02:13:46;;;;;;;15.15;10.95;;;14.70;99.90;;;;;;5094161;28;20265;-72
2022/09/11 02:16:20;;;;;;;16.50;12.18;;;14.70;99.90;;;;;;5123196;27;20199;-72
2022/09/11 02:18:57;;;;;;;20.17;13.50;;;14.80;99.90;;;;;;5110871;27;20251;-72
2022/09/11 02:21:24;;;;;;;22.63;15.10;;;14.70;99.90;;;;;;5125204;27;20290;-72
2022/09/11 02:23:54;;;;;;;20.88;14.40;;;14.80;99.90;;;;;;5134843;27;20239;-72
2022/09/11 02:26:23;;;;;;;26.67;17.70;;;14.90;99.90;;;;;;5107376;27;20258;-72
2022/09/11 02:28:52;;;;;;;25.73;17.23;;;14.90;99.90;;;;;;5097406;28;20258;-72
2022/09/11 02:31:20;;;;;;;27.07;18.00;;;14.90;99.90;;;;;;5128827;27;20200;-72
2022/09/11 02:33:47;;;;;;;30.23;19.17;;;14.90;99.90;;;;;;5134429;27;20200;-72
2022/09/11 02:36:43;;;;;;;32.08;20.42;;;14.90;99.90;;;;;;5133743;27;20211;-72
2022/09/11 02:39:34;;;;;;;34.65;23.02;;;14.90;99.90;;;;;;5125312;27;20639;-72
2022/09/11 02:42:24;;;;;;;34.92;23.00;;;14.90;99.90;;;;;;5093988;28;20201;-72
2022/09/11 02:45:00;;;;;;;36.45;23.05;;;14.90;99.90;;;;;;5120657;27;20710;-72
2022/09/11 02:47:40;;;;;;;36.85;23.92;;;15.00;99.90;;;;;;5113311;27;20197;-72
2022/09/11 02:50:18;;;;;;;38.28;24.48;;;15.00;99.90;;;;;;5116486;27;20578;-72
2022/09/11 02:52:55;;;;;;;36.70;25.17;;;15.00;99.90;;;;;;5092882;28;20202;-72
2022/09/11 02:55:31;;;;;;;35.53;24.40;;;15.00;99.90;;;;;;5105545;27;20198;-72
2022/09/11 02:58:03;;;;;;;34.92;23.42;;;15.00;99.90;;;;;;5093405;28;20221;-72
2022/09/11 03:00:31;;;;;;;33.90;22.85;;;15.00;99.90;;;;;;5127504;27;20196;-72
2022/09/11 03:02:58;;;;;;;36.58;24.70;;;15.10;99.90;;;;;;5109415;27;20203;-71
2022/09/11 03:05:27;;;;;;;35.83;24.67;;;15.00;99.90;;;;;;5117074;27;20566;-74
2022/09/11 03:07:54;;;;;;;37.47;24.30;;;15.10;99.90;;;;;;5115363;27;20185;-72
2022/09/11 03:10:21;;;;;;;39.10;24.23;;;15.00;99.90;;;;;;5109395;28;20205;-70
2022/09/11 03:12:48;;;;;;;41.67;26.43;;;15.10;99.90;;;;;;5093344;28;20213;-73
2022/09/11 03:15:16;;;;;;;37.30;24.98;;;15.00;99.90;;;;;;5118467;27;20204;-72
2022/09/11 03:17:44;;;;;;;35.63;24.73;;;15.00;99.90;;;;;;5123400;27;20311;-72
2022/09/11 03:20:11;;;;;;;36.25;24.67;;;15.00;99.90;;;;;;5118096;27;20201;-72
2022/09/11 03:22:38;;;;;;;39.10;25.13;;;15.00;99.90;;;;;;5092815;28;20201;-72
2022/09/11 03:25:06;;;;;;;38.65;24.20;;;15.00;99.90;;;;;;5113904;27;20207;-72
2022/09/11 03:27:33;;;;;;;37.28;24.02;;;15.00;99.90;;;;;;5124471;27;20573;-72
2022/09/11 03:29:59;;;;;;;39.70;24.60;;;15.00;99.90;;;;;;5112958;28;20185;-72
2022/09/11 03:32:26;;;;;;;32.77;22.43;;;14.90;99.90;;;;;;5111180;27;20207;-72
2022/09/11 03:34:54;;;;;;;34.67;24.42;;;14.90;99.90;;;;;;5100746;27;20280;-72
2022/09/11 03:37:21;;;;;;;35.88;23.85;;;14.90;99.90;;;;;;5104508;27;20216;-72
2022/09/11 03:39:48;;;;;;;35.13;23.20;;;14.90;99.90;;;;;;5132658;27;20196;-72
2022/09/11 03:42:15;;;;;;;34.47;21.63;;;14.90;99.90;;;;;;5118131;27;20204;-72
2022/09/11 03:44:42;;;;;;;32.70;22.83;;;14.90;99.90;;;;;;5093723;28;20214;-72
2022/09/11 03:47:10;;;;;;;33.72;22.63;;;14.90;99.90;;;;;;5097453;27;20217;-73
2022/09/11 03:49:37;;;;;;;31.60;21.67;;;14.90;99.90;;;;;;5115477;27;20603;-72
2022/09/11 03:52:06;;;;;;;32.38;22.67;;;14.90;99.90;;;;;;5110537;28;20618;-72
2022/09/11 03:54:33;;;;;;;36.58;24.90;;;14.90;99.90;;;;;;5108650;28;20208;-72
2022/09/11 03:57:00;;;;;;;34.90;22.88;;;14.90;99.90;;;;;;5125785;27;20247;-72
2022/09/11 03:59:28;;;;;;;35.53;23.30;;;14.90;99.90;;;;;;5112600;28;20246;-72
2022/09/11 04:01:54;;;;;;;38.47;23.42;;;15.00;99.90;;;;;;5104638;28;20842;-72
2022/09/11 04:04:21;;;;;;;34.75;22.73;;;14.90;99.90;;;;;;5112908;28;20555;-72
2022/09/11 04:06:48;;;;;;;35.50;22.92;;;14.80;99.90;;;;;;5124825;28;20580;-72
2022/09/11 04:09:17;;;;;;;35.30;22.15;;;14.90;99.90;;;;;;5116644;28;20697;-72
2022/09/11 04:11:43;;;;;;;35.60;22.17;;;14.70;99.90;;;;;;5116339;28;20497;-72
2022/09/11 04:14:10;;;;;;;35.67;22.77;;;14.90;99.90;;;;;;5111559;28;20208;-72
2022/09/11 04:16:37;;;;;;;37.50;22.38;;;14.90;99.90;;;;;;5111184;28;20201;-72
2022/09/11 04:19:04;;;;;;;32.75;21.88;;;14.80;99.90;;;;;;5112641;28;20230;-72
2022/09/11 04:21:32;;;;;;;33.47;22.58;;;14.90;99.90;;;;;;5106103;28;20212;-72
2022/09/11 04:23:59;;;;;;;33.20;22.85;;;14.90;99.90;;;;;;5101017;28;20281;-72
2022/09/11 04:26:29;;;;;;;37.75;24.10;;;14.80;99.90;;;;;;5108456;28;20211;-72
2022/09/11 04:28:57;;;;;;;33.77;22.53;;;14.90;99.90;;;;;;5117083;28;20195;-72
2022/09/11 04:31:26;;;;;;;34.27;21.93;;;14.90;99.90;;;;;;5118658;27;20204;-72
2022/09/11 04:33:53;;;;;;;35.83;21.67;;;14.90;99.90;;;;;;5111191;27;20632;-72
2022/09/11 04:36:21;;;;;;;35.20;22.98;;;15.00;99.90;;;;;;5115813;28;20241;-72
2022/09/11 04:38:48;;;;;;;31.73;20.83;;;14.90;99.90;;;;;;5121932;27;20261;-72
2022/09/11 04:41:16;;;;;;;31.17;20.33;;;14.90;99.90;;;;;;5116284;27;20669;-72
2022/09/11 04:43:44;;;;;;;30.33;19.60;;;14.80;99.90;;;;;;5136614;27;20299;-72
2022/09/11 04:46:13;;;;;;;33.92;19.33;;;14.80;99.90;;;;;;5114864;27;20207;-72
2022/09/11 04:48:44;;;;;;;28.30;17.30;;;14.80;99.90;;;;;;5135994;27;20205;-72
2022/09/11 04:51:12;;;;;;;29.10;17.30;;;14.80;99.90;;;;;;5103653;27;20697;-72
2022/09/11 04:53:39;;;;;;;28.95;17.80;;;14.80;99.90;;;;;;5115243;28;20208;-72
2022/09/11 04:56:09;;;;;;;29.88;16.75;;;14.80;99.90;;;;;;5101765;27;20557;-72
2022/09/11 04:58:36;;;;;;;29.90;17.70;;;14.70;99.90;;;;;;5095324;28;20233;-72
2022/09/11 05:01:07;;;;;;;29.83;17.85;;;14.80;99.90;;;;;;5115937;27;20558;-72
2022/09/11 05:03:34;;;;;;;28.45;17.55;;;14.80;99.90;;;;;;5104150;28;20236;-72
2022/09/11 05:06:05;;;;;;;24.30;16.17;;;14.80;99.90;;;;;;5104760;27;20209;-72
2022/09/11 05:08:32;;;;;;;25.83;15.75;;;14.70;99.90;;;;;;5113499;28;20242;-72
2022/09/11 05:10:59;;;;;;;27.50;15.88;;;14.80;99.90;;;;;;5109022;27;20550;-72
2022/09/11 05:13:30;;;;;;;29.33;18.35;;;14.80;99.90;;;;;;5109825;27;20606;-72
2022/09/11 05:16:01;;;;;;;31.08;17.27;;;14.80;99.90;;;;;;5104806;27;20258;-72
2022/09/11 05:18:29;;;;;;;24.13;16.52;;;14.80;99.90;;;;;;5112134;27;20216;-72
2022/09/11 05:21:00;;;;;;;24.90;16.45;;;14.80;99.90;;;;;;5107364;27;20205;-72
2022/09/11 05:23:27;;;;;;;26.88;16.20;;;14.80;99.90;;;;;;5106548;27;20284;-72
2022/09/11 05:25:57;;;;;;;27.88;16.98;;;14.80;99.90;;;;;;5103286;28;20254;-72
2022/09/11 05:28:24;;;;;;;24.77;15.73;;;14.90;99.90;;;;;;5110269;27;20279;-72
2022/09/11 05:30:52;;;;;;;26.30;16.38;;;14.80;99.90;;;;;;5103893;27;20284;-72
2022/09/11 05:33:19;;;;;;;25.13;15.80;;;14.80;99.90;;;;;;5099938;27;20198;-72
2022/09/11 05:35:47;;;;;;;26.90;16.35;;;14.90;99.90;;;;;;5110344;28;20197;-72
2022/09/11 05:38:14;;;;;;;27.75;17.35;;;14.90;99.90;;;;;;5100145;28;20225;-72
2022/09/11 05:40:44;;;;;;;25.55;16.00;;;14.90;99.90;;;;;;5105446;27;20204;-76
2022/09/11 05:43:14;;;;;;;25.60;16.05;;;14.90;99.90;;;;;;5102436;28;20297;-72
2022/09/11 05:45:41;;;;;;;26.23;15.77;;;14.90;99.90;;;;;;5111099;27;20201;-72
2022/09/11 05:48:08;;;;;;;24.98;15.77;;;14.90;99.90;;;;;;5104819;28;20189;-72
2022/09/11 05:50:35;;;;;;;23.15;14.98;;;14.90;99.90;;;;;;5108721;27;20232;-72
2022/09/11 05:53:04;;;;;;;24.48;15.82;;;14.90;99.90;;;;;;5109012;27;20193;-72
2022/09/11 05:55:33;;;;;;;25.70;15.15;;;14.80;99.90;;;;;;5103642;28;20229;-72
2022/09/11 05:58:00;;;;;;;25.27;15.32;;;14.90;99.90;;;;;;5107843;27;20224;-72
2022/09/11 06:00:27;;;;;;;24.13;14.75;;;14.80;99.90;;;;;;5111812;27;20201;-72
2022/09/11 06:02:54;;;;;;;22.60;14.40;;;14.90;99.90;;;;;;5099412;28;20193;-72
2022/09/11 06:05:22;;;;;;;23.23;13.68;;;14.80;99.90;;;;;;5108094;27;20287;-72
2022/09/11 06:07:49;;;;;;;25.20;14.93;;;14.80;99.90;;;;;;5103307;27;20647;-72
2022/09/11 06:10:18;;;;;;;26.00;15.70;;;14.80;99.90;;;;;;5107926;27;20228;-72
2022/09/11 06:12:45;;;;;;;27.70;16.10;;;14.80;99.90;;;;;;5107096;28;20677;-72
2022/09/11 06:15:12;;;;;;;25.15;14.98;;;14.70;99.90;;;;;;5107637;27;20205;-72
2022/09/11 06:17:39;;;;;;;27.90;16.65;;;14.70;99.90;;;;;;5105785;27;20548;-72
2022/09/11 06:20:07;;;;;;;31.27;16.33;;;14.70;99.90;;;;;;5098487;27;20230;-72
2022/09/11 06:22:36;;;;;;;29.20;17.30;;;14.70;99.90;;;;;;5107833;27;20197;-72
2022/09/11 06:25:03;;;;;;;27.63;17.20;;;14.70;99.90;;;;;;5100835;27;20198;-73
2022/09/11 06:27:32;;;;;;;28.70;17.33;;;14.60;99.90;;;;;;5100489;27;20202;-72
2022/09/11 06:29:58;;;;;;;32.42;17.05;;;14.70;99.90;;;;;;5104289;27;20295;-72
2022/09/11 06:32:25;;;;;;;29.10;16.77;;;14.70;99.90;;;;;;5104171;28;20569;-72
2022/09/11 06:34:53;;;;;;;30.27;17.52;;;14.70;99.90;;;;;;5102974;28;20190;-73
2022/09/11 06:37:20;;;;;;;26.90;15.70;;;14.60;99.90;;;;;;5098307;28;20728;-73
2022/09/11 06:39:46;;;;;;;29.95;16.75;;;14.70;99.90;;;;;;5106739;27;20223;-73
2022/09/11 06:42:13;;;;;;;28.27;16.23;;;14.60;99.90;;;;;;5102293;28;20573;-72
2022/09/11 06:44:41;;;;;;;26.80;16.00;;;14.60;99.90;;;;;;5105524;28;20674;-72
2022/09/11 06:47:08;;;;;;;27.60;17.15;;;14.70;99.90;;;;;;5106707;27;20571;-72
2022/09/11 06:49:35;;;;;;;28.17;16.23;;;14.70;99.90;;;;;;5104338;28;20726;-72
2022/09/11 06:52:02;;;;;;;29.65;16.40;;;14.80;99.90;;;;;;5107468;28;20578;-72
2022/09/11 06:54:29;;;;;;;28.27;17.17;;;14.70;99.90;;;;;;5108373;27;20232;-72
2022/09/11 06:56:55;;;;;;;25.42;15.98;;;14.80;99.90;;;;;;5105045;28;20197;-73
2022/09/11 06:59:23;;;;;;;28.38;16.75;;;14.80;99.90;;;;;;5109282;27;20690;-73
2022/09/11 07:01:51;;;;;;;29.02;15.65;;;14.90;99.90;;;;;;5105199;27;20620;-72
2022/09/11 07:04:18;;;;;;;27.23;16.20;;;14.80;99.90;;;;;;5103708;27;20201;-73
2022/09/11 07:06:46;;;;;;;28.40;17.42;;;15.00;99.90;;;;;;5106820;28;21819;-72
2022/09/11 07:09:13;;;;;;;25.42;14.85;;;15.00;99.90;;;;;;5107731;27;20197;-72
2022/09/11 07:11:42;;;;;;;30.23;17.15;;;15.00;99.90;;;;;;5103460;27;20650;-72
2022/09/11 07:14:09;;;;;;;29.88;16.08;;;15.00;99.90;;;;;;5106182;28;20288;-73
2022/09/11 07:16:36;;;;;;;26.40;14.57;;;15.00;99.90;;;;;;5097803;28;20198;-73
2022/09/11 07:19:05;;;;;;;26.43;15.27;;;14.90;99.90;;;;;;5110113;27;20679;-73
2022/09/11 07:21:33;;;;;;;25.85;15.05;;;15.00;99.90;;;;;;5106641;28;20574;-72
2022/09/11 07:24:00;;;;;;;25.30;14.68;;;15.00;99.90;;;;;;5106614;28;20289;-73
2022/09/11 07:26:28;;;;;;;27.35;13.93;;;15.00;99.90;;;;;;5104888;27;20208;-73
2022/09/11 07:28:56;;;;;;;22.80;12.82;;;15.00;99.90;;;;;;5105510;28;20197;-73
2022/09/11 07:31:27;;;;;;;25.95;15.05;;;15.00;99.90;;;;;;5105567;28;20202;-73
2022/09/11 07:33:55;;;;;;;26.10;14.90;;;15.00;99.90;;;;;;5106675;27;20256;-73
2022/09/11 07:36:26;;;;;;;26.50;15.15;;;15.00;99.90;;;;;;5102993;27;20204;-72
2022/09/11 07:38:54;;;;;;;27.35;15.23;;;15.10;99.90;;;;;;5105132;27;20220;-73
2022/09/11 07:41:23;;;;;;;28.50;16.98;;;15.10;99.90;;;;;;5103637;27;20606;-72
2022/09/11 07:43:53;;;;;;;28.75;16.80;;;15.10;99.90;;;;;;5103893;27;20200;-73
2022/09/11 07:46:20;;;;;;;28.35;17.67;;;15.20;99.90;;;;;;5102890;28;20228;-73
2022/09/11 07:48:47;;;;;;;34.03;19.60;;;15.10;99.90;;;;;;5101782;27;20208;-72
2022/09/11 07:51:17;;;;;;;29.05;19.38;;;15.10;99.90;;;;;;5107263;28;20609;-73
2022/09/11 07:53:47;;;;;;;33.47;20.67;;;15.20;99.90;;;;;;5103335;28;20201;-73
2022/09/11 07:56:18;;;;;;;32.22;19.65;;;15.30;99.90;;;;;;5104042;27;20252;-72
2022/09/11 07:58:46;;;;;;;29.88;19.73;;;15.40;99.90;;;;;;5104716;28;20208;-73
2022/09/11 08:01:15;;;;;;;30.63;18.00;;;15.50;99.90;;;;;;5104419;28;20288;-73
2022/09/11 08:03:42;;;;;;;30.35;18.42;;;15.30;99.90;;;;;;5109290;28;20679;-72
2022/09/11 08:06:13;;;;;;;29.00;18.75;;;15.40;99.90;;;;;;5109610;28;20193;-72
2022/09/11 08:08:41;;;;;;;29.95;19.02;;;15.50;99.90;;;;;;5103613;28;20243;-73
2022/09/11 08:11:11;;;;;;;28.70;18.42;;;15.50;99.90;;;;;;5105786;28;20209;-73
2022/09/11 08:13:39;;;;;;;29.02;17.38;;;15.70;99.90;;;;;;5104162;28;20615;-76
2022/09/11 08:16:07;;;;;;;26.98;18.40;;;15.70;99.90;;;;;;5104262;28;20204;-72
2022/09/11 08:18:35;;;;;;;27.02;17.23;;;15.70;99.90;;;;;;5102809;28;20224;-72
2022/09/11 08:21:03;;;;;;;27.42;17.83;;;15.80;99.90;;;;;;5109734;28;20193;-72
2022/09/11 08:23:31;;;;;;;27.50;17.27;;;15.70;99.90;;;;;;5105570;28;20653;-72
2022/09/11 08:26:04;;;;;;;26.48;17.70;;;15.80;99.90;;;;;;5098211;28;20285;-72
2022/09/11 08:28:33;;;;;;;26.73;17.58;;;15.80;99.90;;;;;;5099408;28;20198;-73
2022/09/11 08:31:00;;;;;;;28.00;17.70;;;15.80;99.90;;;;;;5105724;28;20193;-72
2022/09/11 08:33:27;;;;;;;28.42;17.38;;;15.90;99.90;;;;;;5107207;28;20192;-72
2022/09/11 08:35:54;;;;;;;27.13;17.27;;;16.00;99.90;;;;;;5104332;28;20193;-72
2022/09/11 08:38:21;;;;;;;31.00;19.30;;;15.90;99.90;;;;;;5102098;28;20217;-72
2022/09/11 08:40:48;;;;;;;29.25;19.30;;;16.00;99.90;;;;;;5103238;28;20201;-73
2022/09/11 08:43:21;;;;;;;27.83;18.58;;;16.00;99.90;;;;;;5103113;28;20201;-72
2022/09/11 08:45:51;;;;;;;30.15;19.48;;;16.00;99.90;;;;;;5097205;28;20208;-72
2022/09/11 08:48:23;;;;;;;28.13;18.02;;;16.00;99.90;;;;;;5103925;28;21498;-72
2022/09/11 08:50:49;;;;;;;29.45;19.17;;;16.10;99.90;;;;;;5099707;28;20654;-72
2022/09/11 08:53:18;;;;;;;29.98;19.38;;;16.10;99.90;;;;;;5099184;28;20198;-72
2022/09/11 08:55:49;;;;;;;31.55;20.33;;;16.20;99.90;;;;;;5102845;28;20201;-72
2022/09/11 08:58:26;;;;;;;29.60;19.67;;;16.30;99.90;;;;;;5099131;28;20228;-72
2022/09/11 09:01:04;;;;;;;30.15;18.98;;;16.20;99.90;;;;;;5107279;28;20201;-72
2022/09/11 09:03:52;;;;;;;28.65;18.95;;;16.30;99.90;;;;;;5107595;28;20196;-72
2022/09/11 09:06:43;;;;;;;28.10;18.25;;;16.30;99.90;;;;;;5096437;28;20198;-72
2022/09/11 09:09:16;;;;;;;31.70;19.60;;;16.30;99.90;;;;;;5099008;28;20206;-72
2022/09/11 09:11:51;;;;;;;29.58;19.52;;;16.30;99.90;;;;;;5108456;28;20209;-72
2022/09/11 09:14:54;;;;;;;29.48;19.50;;;16.30;99.90;;;;;;5099686;28;20444;-72
2022/09/11 09:17:28;;;;;;;29.48;18.30;;;16.50;99.90;;;;;;5099451;28;20201;-72
2022/09/11 09:19:59;;;;;;;29.33;19.30;;;16.30;99.90;;;;;;5101415;28;20252;-71
2022/09/11 09:22:34;;;;;;;28.13;17.92;;;16.40;99.90;;;;;;5110249;27;20204;-72
2022/09/11 09:25:06;;;;;;;29.92;19.67;;;16.50;99.90;;;;;;5105046;27;20197;-72
2022/09/11 09:27:36;;;;;;;28.10;18.15;;;16.50;99.90;;;;;;5106927;27;20202;-71
2022/09/11 09:30:06;;;;;;;27.38;17.20;;;16.50;99.90;;;;;;5111059;27;20189;-71
2022/09/11 09:32:42;;;;;;;27.90;18.50;;;16.50;99.90;;;;;;5107044;27;20193;-71
2022/09/11 09:35:16;;;;;;;29.75;19.48;;;16.50;99.90;;;;;;5113262;27;20246;-71
2022/09/11 09:37:44;;;;;;;28.10;19.13;;;16.50;99.90;;;;;;5105454;27;20262;-71
2022/09/11 09:40:16;;;;;;;28.02;19.30;;;16.50;99.90;;;;;;5109196;27;20217;-71
2022/09/11 09:43:11;;;;;;;27.35;19.25;;;16.50;99.90;;;;;;5110513;27;20208;-71
2022/09/11 09:45:58;;;;;;;28.45;18.40;;;16.50;99.90;;;;;;5106962;27;20204;-71
2022/09/11 09:48:27;;;;;;;27.98;18.73;;;16.40;99.90;;;;;;5096475;28;20644;-71
2022/09/11 09:50:55;;;;;;;28.30;19.15;;;16.50;99.90;;;;;;5106578;27;20558;-71
2022/09/11 09:53:32;;;;;;;29.75;20.17;;;16.60;99.90;;;;;;5106756;28;20305;-71
2022/09/11 09:56:00;;;;;;;27.70;18.45;;;16.70;99.90;;;;;;5106732;28;20230;-72
2022/09/11 09:58:32;;;;;;;28.20;18.52;;;16.90;99.90;;;;;;5111296;27;20208;-71
2022/09/11 10:00:59;;;;;;;20.58;14.18;;;16.80;99.90;;;;;;5108538;27;20197;-71
2022/09/11 10:03:30;;;;;;;24.63;15.55;;;16.70;99.90;;;;;;5110411;27;20204;-72
2022/09/11 10:05:59;;;;;;;23.75;15.05;;;16.80;99.90;;;;;;5102317;27;20208;-71
2022/09/11 10:08:32;;;;;;;24.30;16.65;;;17.00;99.90;;;;;;5107873;27;20247;-71
2022/09/11 10:11:01;;;;;;;23.85;15.57;;;17.00;99.90;;;;;;5108212;27;20644;-71
2022/09/11 10:13:30;;;;;;;19.13;12.27;;;17.00;99.90;;;;;;5108967;27;20201;-71
2022/09/11 10:16:00;;;;;;;18.20;12.23;;;17.00;99.90;;;;;;5106261;27;20564;-71
2022/09/11 10:18:41;;;;;;;21.60;13.95;;;17.00;99.90;;;;;;5109470;27;20293;-71
2022/09/11 10:21:21;;;;;;;19.63;13.23;;;17.20;99.90;;;;;;5105412;27;20205;-71
2022/09/11 10:23:50;;;;;;;19.85;13.35;;;17.20;99.90;;;;;;5092626;28;20212;-72
2022/09/11 10:26:23;;;;;;;19.88;12.73;;;17.30;99.90;;;;;;5105695;27;20208;-71
2022/09/11 10:28:51;;;;;;;19.95;13.48;;;17.30;99.90;;;;;;5106335;27;20193;-71
2022/09/11 10:31:19;;;;;;;19.48;12.93;;;17.50;99.90;;;;;;5106769;27;20197;-71
2022/09/11 10:33:52;;;;;;;20.58;13.00;;;17.50;99.90;;;;;;5112327;27;20207;-72
2022/09/11 10:36:24;;;;;;;17.20;11.43;;;17.50;99.90;;;;;;5113183;27;20224;-71
2022/09/11 10:38:51;;;;;;;18.13;12.05;;;17.50;99.90;;;;;;5112244;27;20197;-71
2022/09/11 10:41:21;;;;;;;18.15;12.02;;;17.50;99.90;;;;;;5103764;27;20208;-71
2022/09/11 10:43:54;;;;;;;18.10;12.10;;;17.40;99.90;;;;;;5111046;27;20196;-71
2022/09/11 10:46:28;;;;;;;17.98;12.02;;;17.40;99.90;;;;;;5105007;27;20197;-71
2022/09/11 10:48:58;;;;;;;19.70;12.68;;;17.40;99.90;;;;;;5109418;27;20450;-71
2022/09/11 10:51:26;;;;;;;18.05;11.63;;;17.60;99.90;;;;;;5106695;27;20216;-72
2022/09/11 10:54:07;;;;;;;19.27;12.88;;;17.50;99.90;;;;;;5107980;27;20201;-71
2022/09/11 10:56:39;;;;;;;19.40;12.23;;;17.70;99.90;;;;;;5108633;27;20209;-72
2022/09/11 10:59:17;;;;;;;22.75;12.55;;;17.80;99.90;;;;;;5106536;27;20221;-71
2022/09/11 11:01:44;;;;;;;18.95;12.20;;;17.90;99.90;;;;;;5106640;28;20602;-71
2022/09/11 11:04:12;;;;;;;18.95;11.60;;;17.80;99.90;;;;;;5108130;27;20209;-71
2022/09/11 11:06:54;;;;;;;17.40;10.90;;;17.70;99.90;;;;;;5107523;27;20243;-72
2022/09/11 11:09:40;;;;;;;14.25;10.38;;;17.90;99.90;;;;;;5109607;27;20197;-72
2022/09/11 11:12:30;;;;;;;18.95;10.32;;;18.00;99.90;;;;;;5106156;28;20212;-72
2022/09/11 11:15:26;;;;;;;17.45;10.70;;;18.00;99.90;;;;;;5109991;27;20200;-72
2022/09/11 11:18:10;;;;;;;16.80;10.55;;;18.10;99.90;;;;;;5107806;27;20205;-72
2022/09/11 11:20:48;;;;;;;15.15;10.07;;;18.30;99.90;;;;;;5108865;27;20220;-72
2022/09/11 11:23:33;;;;;;;16.13;10.15;;;18.40;99.90;;;;;;5107407;28;20197;-71
2022/09/11 11:26:13;;;;;;;20.90;15.20;;;18.60;99.90;;;;;;5103004;27;20207;-71
2022/09/11 11:29:06;;;;;;;18.65;12.75;;;18.40;99.90;;;;;;5105858;27;20570;-71
2022/09/11 11:31:45;;;;;;;15.10;10.52;;;18.40;99.90;;;;;;5112685;27;20199;-71
2022/09/11 11:34:41;;;;;;;15.48;10.55;;;18.50;99.90;;;;;;5107946;28;20205;-74
2022/09/11 11:37:15;;;;;;;15.13;10.25;;;18.30;99.90;;;;;;5110358;27;20296;-74
2022/09/11 11:39:49;;;;;;;13.15;9.43;;;18.50;99.90;;;;;;5105283;27;20220;-74
2022/09/11 11:42:25;;;;;;;15.18;10.15;;;18.50;99.90;;;;;;5088429;27;20196;-73
2022/09/11 11:44:57;;;;;;;14.68;9.68;;;18.50;99.90;;;;;;5107719;27;20199;-73
2022/09/11 11:47:28;;;;;;;17.58;10.40;;;18.60;99.90;;;;;;5103128;27;20197;-74
2022/09/11 11:50:01;;;;;;;16.08;10.82;;;18.60;99.90;;;;;;5105777;27;20193;-73
2022/09/11 11:52:54;;;;;;;15.05;10.70;;;18.60;99.90;;;;;;5108386;28;20204;-73
2022/09/11 11:55:25;;;;;;;15.25;10.63;;;18.50;99.90;;;;;;5104946;27;20606;-73
2022/09/11 11:58:01;;;;;;;17.52;10.82;;;18.60;99.90;;;;;;5108223;28;20193;-74
2022/09/11 12:00:30;;;;;;;17.63;9.82;;;18.60;99.90;;;;;;5106359;28;20236;-74
2022/09/11 12:03:05;;;;;;;17.08;11.10;;;18.70;99.90;;;;;;5104703;28;20216;-73
2022/09/11 12:05:34;;;;;;;17.08;11.43;;;18.70;99.90;;;;;;5112058;28;20199;-73
2022/09/11 12:08:02;;;;;;;15.85;10.50;;;18.60;99.90;;;;;;5108664;28;20197;-73
2022/09/11 12:10:33;;;;;;;18.27;10.75;;;18.90;99.90;;;;;;5109033;28;20193;-74
2022/09/11 12:13:02;;;;;;;19.30;12.15;;;19.10;99.90;;;;;;5103814;28;20270;-74
2022/09/11 12:15:33;;;;;;;17.98;11.35;;;19.20;1.00;;;;;;5109434;28;20204;-74
2022/09/11 12:18:03;;;;;;;16.85;11.70;;;19.30;1.00;;;;;;5107976;28;20683;-74
2022/09/11 12:20:32;;;;;;;20.77;12.00;;;18.90;1.00;;;;;;5102895;28;20224;-73
2022/09/11 12:22:59;;;;;;;17.27;11.35;;;18.80;99.90;;;;;;5110558;28;20201;-73
2022/09/11 12:26:04;;;;;;;15.00;10.88;;;18.90;99.90;;;;;;5107304;28;20197;-74
2022/09/11 12:28:32;;;;;;;18.30;11.32;;;19.10;99.90;;;;;;5109599;28;20193;-73
2022/09/11 12:31:02;;;;;;;16.67;10.10;;;19.20;99.90;;;;;;5105642;28;20196;-74
2022/09/11 12:33:49;;;;;;;15.63;10.57;;;19.30;84.60;;;;;;5099802;28;20201;-74
2022/09/11 12:36:18;;;;;;;17.17;10.90;;;19.20;1.00;;;;;;5103929;28;20289;-74
2022/09/11 12:38:48;;;;;;;15.00;10.38;;;19.20;32.30;;;;;;5099501;28;20213;-73
2022/09/11 12:41:23;;;;;;;16.45;10.35;;;19.20;1.00;;;;;;5086765;28;20221;-74
2022/09/11 12:43:50;;;;;;;14.60;10.02;;;19.30;1.00;;;;;;5101600;28;20201;-74
2022/09/11 12:47:11;;;;;;;16.27;9.57;;;19.40;1.00;;;;;;5103807;28;20197;-73
2022/09/11 12:49:40;;;;;;;16.73;10.05;;;19.30;1.00;;;;;;5108087;28;20233;-74
2022/09/11 12:52:23;;;;;;;16.35;9.65;;;19.30;1.00;;;;;;5098891;28;20223;-74